createdAt,value
2018-12-30T00:01:56.271Z,100959.78
2018-12-30T00:04:26.615Z,100962.91
2018-12-30T00:07:16.078Z,100963.75
2018-12-30T00:09:46.319Z,100966.82
2018-12-30T00:12:16.528Z,100963.92
2018-12-30T00:14:45.042Z,100967.25
2018-12-30T00:17:13.558Z,100981.98
2018-12-30T00:20:01.281Z,100981.14
2018-12-30T00:22:29.830Z,100979.83
2018-12-30T00:24:58.369Z,100995.69
2018-12-30T00:27:26.879Z,101002.53
2018-12-30T00:29:55.467Z,101000.05
2018-12-30T00:32:25.733Z,101008.59
2018-12-30T00:34:54.217Z,101018.44
2018-12-30T00:37:22.769Z,101021.92
2018-12-30T00:39:51.280Z,101036.33
2018-12-30T00:42:19.839Z,101045.87
2018-12-30T00:44:48.356Z,101059.94
2018-12-30T00:47:16.855Z,101055.14
2018-12-30T00:49:45.381Z,101054.50
2018-12-30T00:52:13.848Z,101072.55
2018-12-30T00:55:01.681Z,101101.20
2018-12-30T00:57:30.152Z,101111.88
2018-12-30T01:00:17.910Z,101115.86
2018-12-30T01:02:46.379Z,101124.67
2018-12-30T01:05:34.204Z,101146.80
2018-12-30T01:08:02.673Z,101189.47
2018-12-30T01:10:50.414Z,101170.66
2018-12-30T01:16:25.670Z,101200.93
2018-12-30T01:18:54.147Z,101204.20
2018-12-30T01:21:25.205Z,101225.37
2018-12-30T01:24:13.918Z,101221.89
2018-12-30T01:26:42.392Z,101223.09
2018-12-30T01:29:10.873Z,101227.84
2018-12-30T01:31:39.343Z,101246.08
2018-12-30T01:34:27.069Z,101248.02
2018-12-30T01:36:55.546Z,101238.95
2018-12-30T01:39:24.029Z,101241.80
2018-12-30T01:41:52.507Z,101256.55
2018-12-30T01:44:40.107Z,101255.28
2018-12-30T01:49:56.027Z,101265.11
2018-12-30T01:55:11.954Z,101283.41
2018-12-30T01:57:42.152Z,101277.69
2018-12-30T02:00:29.892Z,101288.88
2018-12-30T02:02:58.366Z,101293.46
2018-12-30T02:05:26.853Z,101309.34
2018-12-30T02:07:55.330Z,101319.23
2018-12-30T02:10:43.150Z,101322.37
2018-12-30T02:13:30.880Z,101320.93
2018-12-30T02:15:59.359Z,101331.14
2018-12-30T02:18:27.839Z,101344.70
2018-12-30T02:21:15.659Z,101340.42
2018-12-30T02:26:31.578Z,101351.27
2018-12-30T02:31:47.504Z,101365.61
2018-12-30T02:34:35.091Z,101360.88
2018-12-30T02:37:03.577Z,101366.52
2018-12-30T02:42:19.489Z,101389.58
2018-12-30T02:45:07.092Z,101381.55
2018-12-30T02:47:54.683Z,101399.86
2018-12-30T02:50:42.516Z,101400.52
2018-12-30T02:53:30.111Z,101408.16
2018-12-30T02:58:32.944Z,101418.17
2018-12-30T03:01:01.463Z,101422.45
2018-12-30T03:03:29.911Z,101423.03
2018-12-30T03:06:17.737Z,101429.65
2018-12-30T03:09:25.599Z,101432.31
2018-12-30T03:14:28.002Z,101442.05
2018-12-30T03:17:15.744Z,101457.28
2018-12-30T03:20:03.552Z,101445.07
2018-12-30T03:25:46.041Z,101455.34
2018-12-30T03:28:14.513Z,101469.88
2018-12-30T03:31:02.123Z,101469.53
2018-12-30T03:33:30.598Z,101478.92
2018-12-30T03:35:59.078Z,101479.03
2018-12-30T03:39:07.481Z,101480.23
2018-12-30T03:41:55.090Z,101497.02
2018-12-30T03:44:42.803Z,101493.18
2018-12-30T03:47:11.291Z,101499.86
2018-12-30T03:49:59.010Z,101495.85
2018-12-30T03:52:46.749Z,101494.15
2018-12-30T03:55:34.465Z,101493.38
2018-12-30T03:58:22.075Z,101493.18
2018-12-30T04:00:50.597Z,101501.45
2018-12-30T04:03:19.041Z,101507.90
2018-12-30T04:05:47.514Z,101518.69
2018-12-30T04:08:35.416Z,101520.28
2018-12-30T04:11:23.243Z,101530.87
2018-12-30T04:14:10.966Z,101521.28
2018-12-30T04:16:39.456Z,101538.71
2018-12-30T04:19:27.054Z,101527.20
2018-12-30T04:22:17.042Z,101520.97
2018-12-30T04:25:04.110Z,101537.70
2018-12-30T04:27:32.597Z,101541.43
2018-12-30T04:30:20.323Z,101554.98
2018-12-30T04:32:48.829Z,101552.35
2018-12-30T04:35:17.288Z,101561.45
2018-12-30T04:37:45.776Z,101567.78
2018-12-30T04:40:33.598Z,101570.94
2018-12-30T04:43:21.425Z,101576.16
2018-12-30T04:45:49.914Z,101577.58
2018-12-30T04:48:18.380Z,101586.09
2018-12-30T04:51:06.107Z,101590.61
2018-12-30T04:53:34.593Z,101597.50
2018-12-30T04:56:22.181Z,101604.84
2018-12-30T04:58:50.673Z,101610.30
2018-12-30T05:01:19.415Z,101626.50
2018-12-30T05:04:07.151Z,101628.73
2018-12-30T05:06:54.882Z,101635.80
2018-12-30T05:09:23.362Z,101641.48
2018-12-30T05:14:45.221Z,101644.01
2018-12-30T05:25:15.452Z,101656.66
2018-12-30T05:33:10.743Z,101669.80
2018-12-30T05:35:58.559Z,101679.89
2018-12-30T05:38:27.044Z,101679.14
2018-12-30T05:41:14.765Z,101681.72
2018-12-30T05:43:43.251Z,101683.95
2018-12-30T05:46:11.724Z,101686.78
2018-12-30T05:51:14.189Z,101688.88
2018-12-30T05:54:01.791Z,101695.84
2018-12-30T05:59:36.963Z,101703.08
2018-12-30T06:02:24.722Z,101704.83
2018-12-30T06:05:12.315Z,101714.81
2018-12-30T06:07:59.920Z,101710.94
2018-12-30T06:10:28.394Z,101716.91
2018-12-30T06:13:16.130Z,101730.09
2018-12-30T06:15:44.604Z,101725.80
2018-12-30T06:18:32.383Z,101729.45
2018-12-30T06:21:19.979Z,101735.10
2018-12-30T06:24:07.713Z,101736.84
2018-12-30T06:26:55.311Z,101735.95
2018-12-30T06:32:16.634Z,101749.17
2018-12-30T06:35:04.233Z,101750.88
2018-12-30T06:37:32.711Z,101757.46
2018-12-30T06:40:20.314Z,101762.89
2018-12-30T06:43:07.920Z,101763.30
2018-12-30T06:48:43.181Z,101778.45
2018-12-30T06:51:11.656Z,101780.59
2018-12-30T06:53:59.389Z,101782.86
2018-12-30T06:56:27.866Z,101792.92
2018-12-30T06:59:15.477Z,101788.05
2018-12-30T07:05:09.859Z,101795.16
2018-12-30T07:07:38.334Z,101795.80
2018-12-30T07:10:46.732Z,101794.62
2018-12-30T07:13:15.217Z,101801.98
2018-12-30T07:18:31.140Z,101811.91
2018-12-30T07:20:59.891Z,101806.55
2018-12-30T07:23:28.386Z,101820.28
2018-12-30T07:25:56.863Z,101821.20
2018-12-30T07:28:25.333Z,101819.66
2018-12-30T07:31:13.070Z,101823.48
2018-12-30T07:34:00.812Z,101832.25
2018-12-30T07:36:48.625Z,101842.08
2018-12-30T07:39:17.113Z,101836.42
2018-12-30T07:41:45.586Z,101848.61
2018-12-30T07:44:14.073Z,101850.52
2018-12-30T07:46:42.550Z,101850.70
2018-12-30T07:49:11.050Z,101835.66
2018-12-30T07:51:39.539Z,101854.05
2018-12-30T07:54:27.153Z,101855.64
2018-12-30T07:56:55.648Z,101856.26
2018-12-30T07:59:24.141Z,101872.36
2018-12-30T08:02:11.735Z,101868.18
2018-12-30T08:04:59.465Z,101878.02
2018-12-30T08:07:47.058Z,101879.08
2018-12-30T08:10:15.588Z,101885.68
2018-12-30T08:12:44.026Z,101880.58
2018-12-30T08:15:31.655Z,101890.35
2018-12-30T08:18:00.133Z,101887.47
2018-12-30T08:20:47.738Z,101884.09
2018-12-30T08:23:35.464Z,101882.11
2018-12-30T08:26:23.114Z,101876.75
2018-12-30T08:29:10.716Z,101873.40
2018-12-30T08:31:58.540Z,101880.87
2018-12-30T08:34:27.024Z,101877.77
2018-12-30T08:36:55.500Z,101878.43
2018-12-30T08:39:24.072Z,101883.27
2018-12-30T08:42:11.662Z,101892.41
2018-12-30T08:44:40.152Z,101887.60
2018-12-30T08:47:27.748Z,101886.95
2018-12-30T08:49:56.230Z,101890.32
2018-12-30T08:52:43.950Z,101896.14
2018-12-30T08:55:31.683Z,101898.58
2018-12-30T08:58:00.153Z,101894.16
2018-12-30T09:00:47.768Z,101888.80
2018-12-30T09:03:35.357Z,101893.95
2018-12-30T09:06:23.089Z,101895.81
2018-12-30T09:08:51.575Z,101886.20
2018-12-30T09:11:39.311Z,101889.36
2018-12-30T09:14:07.791Z,101877.87
2018-12-30T09:16:36.283Z,101880.28
2018-12-30T09:19:44.690Z,101878.84
2018-12-30T09:22:13.163Z,101893.59
2018-12-30T09:24:41.643Z,101887.34
2018-12-30T09:27:10.131Z,101898.00
2018-12-30T09:29:57.734Z,101901.14
2018-12-30T09:32:26.211Z,101894.70
2018-12-30T09:34:54.714Z,101896.72
2018-12-30T09:40:29.989Z,101891.70
2018-12-30T09:42:58.471Z,101895.24
2018-12-30T09:45:26.958Z,101891.83
2018-12-30T09:47:55.436Z,101887.37
2018-12-30T09:50:23.921Z,101892.00
2018-12-30T09:53:11.504Z,101896.62
2018-12-30T09:55:39.991Z,101897.14
2018-12-30T09:58:27.581Z,101898.56
2018-12-30T10:00:56.071Z,101914.52
2018-12-30T10:03:24.543Z,101924.46
2018-12-30T10:05:53.028Z,101932.61
2018-12-30T10:11:08.951Z,101929.96
2018-12-30T10:16:24.870Z,101928.35
2018-12-30T10:22:01.780Z,101911.70
2018-12-30T10:24:30.247Z,101913.80
2018-12-30T10:26:58.733Z,101919.52
2018-12-30T10:29:27.206Z,101915.90
2018-12-30T10:32:14.936Z,101918.50
2018-12-30T10:34:43.410Z,101905.16
2018-12-30T10:37:11.893Z,101915.08
2018-12-30T10:39:59.481Z,101906.06
2018-12-30T10:42:27.965Z,101923.23
2018-12-30T10:45:15.558Z,101915.69
2018-12-30T10:47:44.036Z,101914.44
2018-12-30T10:50:12.515Z,101917.34
2018-12-30T10:52:41.005Z,101914.61
2018-12-30T10:57:56.928Z,101915.37
2018-12-30T11:00:44.652Z,101918.05
2018-12-30T11:03:32.385Z,101921.41
2018-12-30T11:06:19.986Z,101920.45
2018-12-30T11:09:07.806Z,101924.69
2018-12-30T11:11:36.289Z,101921.87
2018-12-30T11:14:24.014Z,101926.42
2018-12-30T11:17:11.620Z,101922.88
2018-12-30T11:19:59.218Z,101932.03
2018-12-30T11:22:46.820Z,101923.70
2018-12-30T11:25:15.295Z,101934.05
2018-12-30T11:28:03.122Z,101931.69
2018-12-30T11:30:50.719Z,101925.64
2018-12-30T11:38:27.510Z,101920.05
2018-12-30T11:40:56.000Z,101919.78
2018-12-30T11:43:43.631Z,101905.67
2018-12-30T11:46:52.014Z,101908.73
2018-12-30T11:49:39.737Z,101907.84
2018-12-30T11:52:08.222Z,101901.21
2018-12-30T11:57:24.155Z,101914.63
2018-12-30T12:00:11.740Z,101923.04
2018-12-30T12:02:59.571Z,101913.62
2018-12-30T12:05:28.058Z,101915.52
2018-12-30T12:07:56.548Z,101924.16
2018-12-30T12:10:44.367Z,101920.44
2018-12-30T12:13:12.855Z,101920.94
2018-12-30T12:18:47.886Z,101919.05
2018-12-30T12:21:16.365Z,101910.59
2018-12-30T12:23:44.851Z,101921.41
2018-12-30T12:26:32.590Z,101919.70
2018-12-30T12:29:20.310Z,101918.73
2018-12-30T12:32:07.909Z,101923.50
2018-12-30T12:37:42.949Z,101927.98
2018-12-30T12:40:11.427Z,101938.37
2018-12-30T12:42:39.916Z,101942.13
2018-12-30T12:45:27.730Z,101943.17
2018-12-30T12:48:15.469Z,101943.14
2018-12-30T12:51:03.198Z,101938.11
2018-12-30T12:53:51.033Z,101937.92
2018-12-30T12:56:38.754Z,101940.83
2018-12-30T12:59:07.244Z,101945.45
2018-12-30T13:01:35.727Z,101950.33
2018-12-30T13:04:23.693Z,101939.42
2018-12-30T13:06:52.164Z,101945.55
2018-12-30T13:11:55.144Z,101945.20
2018-12-30T13:14:23.777Z,101949.11
2018-12-30T13:16:52.459Z,101944.43
2018-12-30T13:19:21.072Z,101952.45
2018-12-30T13:22:08.948Z,101947.48
2018-12-30T13:24:56.620Z,101949.07
2018-12-30T13:27:44.267Z,101941.31
2018-12-30T13:30:12.771Z,101947.68
2018-12-30T13:32:41.337Z,101952.25
2018-12-30T13:35:09.876Z,101950.54
2018-12-30T13:37:38.480Z,101948.50
2018-12-30T13:40:07.140Z,101950.73
2018-12-30T13:42:35.637Z,101949.77
2018-12-30T13:47:59.196Z,101948.19
2018-12-30T13:50:46.935Z,101946.16
2018-12-30T13:53:15.432Z,101953.98
2018-12-30T13:55:44.119Z,101955.60
2018-12-30T13:58:31.860Z,101960.06
2018-12-30T14:01:00.352Z,101959.24
2018-12-30T14:03:54.996Z,101956.00
2018-12-30T14:06:23.506Z,101958.98
2018-12-30T14:08:52.018Z,101950.73
2018-12-30T14:11:20.536Z,101943.89
2018-12-30T14:14:08.381Z,101936.44
2018-12-30T14:16:36.953Z,101924.63
2018-12-30T14:19:05.491Z,101925.19
2018-12-30T14:21:34.008Z,101925.08
2018-12-30T14:24:02.656Z,101927.72
2018-12-30T14:26:31.112Z,101926.88
2018-12-30T14:28:59.669Z,101940.67
2018-12-30T14:31:28.156Z,101938.97
2018-12-30T14:33:56.673Z,101937.75
2018-12-30T14:36:25.142Z,101941.81
2018-12-30T14:39:12.966Z,101948.72
2018-12-30T14:41:41.476Z,101949.83
2018-12-30T14:44:10.031Z,101953.89
2018-12-30T14:46:38.628Z,101954.06
2018-12-30T14:49:26.383Z,101964.53
2018-12-30T14:51:54.865Z,101966.45
2018-12-30T14:54:23.412Z,101968.72
2018-12-30T14:56:51.881Z,101978.50
2018-12-30T14:59:39.531Z,101979.77
2018-12-30T15:02:08.028Z,101977.63
2018-12-30T15:04:36.514Z,101965.50
2018-12-30T15:07:24.270Z,101973.66
2018-12-30T15:09:52.816Z,101979.31
2018-12-30T15:12:40.531Z,101996.50
2018-12-30T15:15:28.262Z,101990.96
2018-12-30T15:17:56.747Z,102005.59
2018-12-30T15:22:59.126Z,102003.88
2018-12-30T15:25:27.618Z,102010.45
2018-12-30T15:30:43.544Z,102017.59
2018-12-30T15:33:12.021Z,102013.69
2018-12-30T15:35:40.507Z,102007.27
2018-12-30T15:38:28.230Z,102007.43
2018-12-30T15:43:49.770Z,102019.11
2018-12-30T15:46:18.256Z,102018.23
2018-12-30T15:48:46.724Z,102016.95
2018-12-30T15:51:34.321Z,102016.48
2018-12-30T15:54:02.803Z,102009.05
2018-12-30T15:56:50.538Z,102021.20
2018-12-30T15:59:38.354Z,102023.28
2018-12-30T16:04:41.333Z,102003.89
2018-12-30T16:07:29.066Z,102005.77
2018-12-30T16:13:04.104Z,102007.09
2018-12-30T16:15:51.839Z,102007.73
2018-12-30T16:18:20.316Z,102009.48
2018-12-30T16:20:48.796Z,102009.89
2018-12-30T16:23:17.278Z,102016.89
2018-12-30T16:28:39.324Z,102026.17
2018-12-30T16:31:07.812Z,102028.15
2018-12-30T16:33:36.287Z,102025.05
2018-12-30T16:36:24.020Z,102029.23
2018-12-30T16:41:39.940Z,102045.12
2018-12-30T16:44:27.755Z,102057.37
2018-12-30T16:47:15.486Z,102055.33
2018-12-30T16:49:43.962Z,102062.46
2018-12-30T16:52:12.446Z,102062.40
2018-12-30T16:54:40.939Z,102060.45
2018-12-30T16:57:09.423Z,102069.77
2018-12-30T16:59:37.892Z,102068.00
2018-12-30T17:02:06.382Z,102067.66
2018-12-30T17:04:34.863Z,102065.59
2018-12-30T17:07:22.462Z,102059.97
2018-12-30T17:09:50.944Z,102068.66
2018-12-30T17:12:19.459Z,102067.17
2018-12-30T17:17:35.377Z,102066.27
2018-12-30T17:20:23.197Z,102074.06
2018-12-30T17:23:11.023Z,102082.12
2018-12-30T17:28:26.950Z,102082.77
2018-12-30T17:30:55.428Z,102085.47
2018-12-30T17:33:43.259Z,102083.11
2018-12-30T17:36:11.739Z,102081.52
2018-12-30T17:41:13.915Z,102084.16
2018-12-30T17:44:01.520Z,102092.52
2018-12-30T17:46:49.125Z,102089.45
2018-12-30T17:54:39.480Z,102106.97
2018-12-30T17:57:27.222Z,102108.65
2018-12-30T18:00:14.945Z,102110.48
2018-12-30T18:03:02.674Z,102108.19
2018-12-30T18:05:31.152Z,102107.97
2018-12-30T18:07:59.648Z,102107.70
2018-12-30T18:10:47.253Z,102114.49
2018-12-30T18:15:49.662Z,102105.09
2018-12-30T18:18:18.185Z,102102.38
2018-12-30T18:20:46.658Z,102111.58
2018-12-30T18:25:49.123Z,102113.11
2018-12-30T18:28:17.633Z,102112.88
2018-12-30T18:31:05.356Z,102111.92
2018-12-30T18:33:33.881Z,102103.91
2018-12-30T18:36:02.359Z,102101.21
2018-12-30T18:38:50.191Z,102102.73
2018-12-30T18:41:18.693Z,102105.86
2018-12-30T18:44:06.431Z,102105.34
2018-12-30T18:46:34.903Z,102098.95
2018-12-30T18:49:03.427Z,102097.81
2018-12-30T18:51:51.087Z,102093.95
2018-12-30T18:54:38.827Z,102102.69
2018-12-30T18:57:26.654Z,102102.75
2018-12-30T18:59:55.131Z,102092.69
2018-12-30T19:02:42.953Z,102088.11
2018-12-30T19:05:30.542Z,102094.43
2018-12-30T19:08:18.148Z,102095.75
2018-12-30T19:11:05.865Z,102095.41
2018-12-30T19:13:34.361Z,102097.56
2018-12-30T19:16:22.183Z,102106.02
2018-12-30T19:18:50.661Z,102104.94
2018-12-30T19:21:19.141Z,102101.42
2018-12-30T19:24:06.871Z,102106.72
2018-12-30T19:29:42.045Z,102102.73
2018-12-30T19:32:10.528Z,102110.20
2018-12-30T19:34:58.135Z,102107.80
2018-12-30T19:37:45.866Z,102096.82
2018-12-30T19:40:33.469Z,102085.44
2018-12-30T19:43:21.093Z,102089.41
2018-12-30T19:46:08.986Z,102095.04
2018-12-30T19:48:37.470Z,102095.30
2018-12-30T19:51:25.058Z,102101.09
2018-12-30T19:53:53.544Z,102099.50
2018-12-30T19:56:22.324Z,102104.11
2018-12-30T19:58:52.230Z,102107.24
2018-12-30T20:01:39.956Z,102104.54
2018-12-30T20:04:27.782Z,102097.72
2018-12-30T20:06:56.257Z,102087.00
2018-12-30T20:09:25.737Z,102083.52
2018-12-30T20:14:43.429Z,102074.26
2018-12-30T20:17:12.603Z,102074.59
2018-12-30T20:19:41.089Z,102077.28
2018-12-30T20:22:09.560Z,102087.03
2018-12-30T20:24:38.037Z,102088.55
2018-12-30T20:27:25.626Z,102094.53
2018-12-30T20:30:13.354Z,102095.39
2018-12-30T20:33:01.079Z,102092.98
2018-12-30T20:35:29.567Z,102084.26
2018-12-30T20:38:17.161Z,102077.31
2018-12-30T20:41:04.900Z,102081.76
2018-12-30T20:43:52.495Z,102087.55
2018-12-30T20:46:20.977Z,102080.97
2018-12-30T20:48:49.456Z,102076.66
2018-12-30T20:51:18.018Z,102067.02
2018-12-30T20:54:05.755Z,102068.42
2018-12-30T20:56:53.356Z,102068.31
2018-12-30T20:59:21.829Z,102074.88
2018-12-30T21:02:09.569Z,102065.82
2018-12-30T21:04:38.073Z,102070.31
2018-12-30T21:07:25.667Z,102059.88
2018-12-30T21:10:13.275Z,102068.08
2018-12-30T21:13:00.865Z,102073.92
2018-12-30T21:15:29.354Z,102076.49
2018-12-30T21:18:17.077Z,102073.00
2018-12-30T21:20:45.565Z,102084.27
2018-12-30T21:26:01.488Z,102081.44
2018-12-30T21:28:49.209Z,102074.98
2018-12-30T21:31:17.695Z,102073.89
2018-12-30T21:33:46.499Z,102082.57
2018-12-30T21:36:14.981Z,102083.91
2018-12-30T21:38:43.459Z,102080.97
2018-12-30T21:41:31.281Z,102089.69
2018-12-30T21:44:18.876Z,102085.82
2018-12-30T21:46:47.363Z,102090.73
2018-12-30T21:49:34.958Z,102099.73
2018-12-30T21:52:03.440Z,102096.91
2018-12-30T21:54:51.036Z,102092.79
2018-12-30T21:57:19.524Z,102100.00
2018-12-30T21:59:48.001Z,102099.44
2018-12-30T22:02:35.737Z,102107.34
2018-12-30T22:05:44.135Z,102106.16
2018-12-30T22:08:12.611Z,102105.89
2018-12-30T22:11:00.470Z,102103.87
2018-12-30T22:16:16.391Z,102091.42
2018-12-30T22:21:32.322Z,102081.80
2018-12-30T22:24:20.144Z,102083.87
2018-12-30T22:27:07.874Z,102081.41
2018-12-30T22:29:36.353Z,102083.08
2018-12-30T22:32:24.094Z,102081.05
2018-12-30T22:35:11.698Z,102077.14
2018-12-30T22:37:59.302Z,102081.08
2018-12-30T22:40:27.791Z,102082.31
2018-12-30T22:42:56.270Z,102092.75
2018-12-30T22:46:04.665Z,102095.40
2018-12-30T22:48:45.740Z,102093.05
2018-12-30T22:51:14.232Z,102090.31
2018-12-30T22:54:02.054Z,102088.50
2018-12-30T22:56:49.699Z,102097.37
2018-12-30T22:59:37.290Z,102094.77
2018-12-30T23:02:25.123Z,102092.23
2018-12-30T23:08:01.799Z,102090.53
2018-12-30T23:10:49.475Z,102091.23
2018-12-30T23:13:37.124Z,102099.86
2018-12-30T23:16:05.634Z,102094.80
2018-12-30T23:18:53.361Z,102092.80
2018-12-30T23:21:40.966Z,102098.25
2018-12-30T23:26:56.885Z,102097.11
2018-12-30T23:29:44.612Z,102092.51
2018-12-30T23:34:47.706Z,102091.77
2018-12-30T23:37:16.196Z,102089.62
2018-12-30T23:40:03.923Z,102089.12
2018-12-30T23:45:25.549Z,102083.22
2018-12-30T23:47:54.036Z,102084.35
2018-12-30T23:50:22.512Z,102080.18
2018-12-30T23:52:50.995Z,102088.09
2018-12-30T23:55:19.482Z,102079.89
2018-12-30T23:58:07.206Z,102080.18
